createdAt,value
2022-10-22T00:01:12.374Z,14.45
2022-10-22T00:03:39.955Z,14.64
2022-10-22T00:06:09.133Z,14.51
2022-10-22T00:08:36.843Z,14.31
2022-10-22T00:11:10.184Z,14.52
2022-10-22T00:13:37.774Z,14.58
2022-10-22T00:16:05.717Z,14.82
2022-10-22T00:18:33.267Z,15.01
2022-10-22T00:21:00.807Z,14.61
2022-10-22T00:23:29.743Z,14.85
2022-10-22T00:25:57.304Z,14.54
2022-10-22T00:28:25.432Z,14.89
2022-10-22T00:30:57.783Z,14.94
2022-10-22T00:33:25.785Z,14.88
2022-10-22T00:35:53.304Z,15.02
2022-10-22T00:38:21.010Z,15.18
2022-10-22T00:40:50.131Z,15.15
2022-10-22T00:43:20.236Z,15.21
2022-10-22T00:45:48.262Z,15.19
2022-10-22T00:48:18.445Z,14.96
2022-10-22T00:50:51.363Z,15.16
2022-10-22T00:53:23.483Z,15.25
2022-10-22T00:55:55.104Z,15.06
2022-10-22T00:58:26.392Z,15.17
2022-10-22T01:00:54.601Z,14.92
2022-10-22T01:03:22.737Z,14.84
2022-10-22T01:05:56.894Z,14.59
2022-10-22T01:08:30.052Z,14.72
2022-10-22T01:11:08.925Z,14.75
2022-10-22T01:13:50.382Z,14.90
2022-10-22T01:16:22.707Z,15.01
2022-10-22T01:18:58.808Z,14.70
2022-10-22T01:21:33.813Z,14.45
2022-10-22T01:24:31.741Z,14.52
2022-10-22T01:27:12.087Z,14.78
2022-10-22T01:29:45.161Z,14.90
2022-10-22T01:32:17.550Z,15.16
2022-10-22T01:34:49.611Z,15.03
2022-10-22T01:37:19.501Z,15.21
2022-10-22T01:39:49.117Z,15.28
2022-10-22T01:42:16.665Z,15.37
2022-10-22T01:44:46.502Z,15.41
2022-10-22T01:47:28.632Z,15.26
2022-10-22T01:50:24.808Z,15.12
2022-10-22T01:53:07.965Z,14.37
2022-10-22T01:55:44.576Z,14.16
2022-10-22T01:58:23.658Z,14.06
2022-10-22T02:01:01.362Z,14.33
2022-10-22T02:03:37.772Z,14.64
2022-10-22T02:06:12.117Z,14.96
2022-10-22T02:08:40.357Z,15.06
2022-10-22T02:11:08.558Z,15.12
2022-10-22T02:13:42.454Z,15.15
2022-10-22T02:16:17.123Z,15.00
2022-10-22T02:18:47.727Z,14.95
2022-10-22T02:21:15.734Z,15.05
2022-10-22T02:23:43.332Z,15.14
2022-10-22T02:26:17.314Z,15.20
2022-10-22T02:28:50.863Z,15.28
2022-10-22T02:31:25.304Z,15.45
2022-10-22T02:33:56.737Z,15.47
2022-10-22T02:36:25.709Z,15.55
2022-10-22T02:38:53.792Z,15.57
2022-10-22T02:41:21.339Z,15.61
2022-10-22T02:43:51.787Z,15.48
2022-10-22T02:46:20.893Z,15.66
2022-10-22T02:48:48.513Z,15.67
2022-10-22T02:51:16.441Z,15.47
2022-10-22T02:53:43.955Z,15.50
2022-10-22T02:56:12.535Z,15.45
2022-10-22T02:58:40.051Z,15.37
2022-10-22T03:01:09.435Z,15.25
2022-10-22T03:03:40.177Z,15.17
2022-10-22T03:06:08.473Z,14.97
2022-10-22T03:08:35.991Z,14.87
2022-10-22T03:11:03.570Z,14.77
2022-10-22T03:13:31.083Z,15.07
2022-10-22T03:15:58.591Z,14.89
2022-10-22T03:18:26.119Z,14.95
2022-10-22T03:21:05.650Z,15.19
2022-10-22T03:23:33.708Z,14.97
2022-10-22T03:26:01.327Z,15.30
2022-10-22T03:28:28.982Z,15.37
2022-10-22T03:30:56.496Z,15.58
2022-10-22T03:33:24.107Z,15.45
2022-10-22T03:35:51.687Z,15.25
2022-10-22T03:38:20.691Z,15.00
2022-10-22T03:40:48.467Z,14.89
2022-10-22T03:43:16.439Z,14.87
2022-10-22T03:45:43.928Z,14.92
2022-10-22T03:48:11.444Z,15.28
2022-10-22T03:50:38.964Z,15.11
2022-10-22T03:53:07.140Z,15.24
2022-10-22T03:55:36.012Z,15.44
2022-10-22T03:58:03.523Z,15.37
2022-10-22T04:00:31.043Z,15.78
2022-10-22T04:02:58.741Z,15.99
2022-10-22T04:05:26.277Z,15.93
2022-10-22T04:07:53.844Z,15.71
2022-10-22T04:10:21.572Z,15.63
2022-10-22T04:12:50.538Z,15.72
2022-10-22T04:15:18.720Z,15.67
2022-10-22T04:17:46.223Z,15.85
2022-10-22T04:20:13.732Z,16.02
2022-10-22T04:22:41.255Z,16.12
2022-10-22T04:25:09.310Z,16.06
2022-10-22T04:27:37.523Z,16.20
2022-10-22T04:30:07.884Z,15.47
2022-10-22T04:32:35.456Z,15.37
2022-10-22T04:35:02.962Z,15.99
2022-10-22T04:37:30.487Z,16.17
2022-10-22T04:39:58.410Z,16.29
2022-10-22T04:42:26.123Z,16.26
2022-10-22T04:44:53.615Z,16.15
2022-10-22T04:47:22.532Z,16.13
2022-10-22T04:49:50.049Z,15.97
2022-10-22T04:52:17.588Z,15.82
2022-10-22T04:54:45.097Z,15.90
2022-10-22T04:57:12.604Z,15.82
2022-10-22T04:59:40.152Z,15.34
2022-10-22T05:02:07.697Z,15.09
2022-10-22T05:04:36.567Z,15.79
2022-10-22T05:07:04.083Z,16.11
2022-10-22T05:09:31.605Z,15.82
2022-10-22T05:11:59.133Z,15.77
2022-10-22T05:14:27.324Z,15.84
2022-10-22T05:16:55.179Z,15.39
2022-10-22T05:19:25.268Z,15.39
2022-10-22T05:21:55.921Z,15.24
2022-10-22T05:24:23.654Z,15.11
2022-10-22T05:26:51.703Z,14.90
2022-10-22T05:29:19.376Z,15.32
2022-10-22T05:31:47.182Z,15.47
2022-10-22T05:34:15.121Z,15.79
2022-10-22T05:36:43.046Z,15.62
2022-10-22T05:39:12.251Z,15.71
2022-10-22T05:41:39.761Z,15.79
2022-10-22T05:44:07.334Z,15.70
2022-10-22T05:46:36.755Z,15.74
2022-10-22T05:49:06.220Z,15.76
2022-10-22T05:51:35.923Z,15.37
2022-10-22T05:54:05.934Z,15.58
2022-10-22T05:56:36.681Z,15.47
2022-10-22T05:59:04.410Z,15.79
2022-10-22T06:01:35.194Z,15.87
2022-10-22T06:04:05.657Z,16.15
2022-10-22T06:06:35.389Z,16.31
2022-10-22T06:09:06.351Z,16.40
2022-10-22T06:11:35.537Z,16.34
2022-10-22T06:14:03.088Z,16.36
2022-10-22T06:16:31.052Z,16.24
2022-10-22T06:19:00.366Z,16.10
2022-10-22T06:21:27.924Z,16.00
2022-10-22T06:23:57.452Z,15.74
2022-10-22T06:26:25.128Z,15.55
2022-10-22T06:28:54.267Z,15.53
2022-10-22T06:31:21.807Z,15.73
2022-10-22T06:33:49.353Z,15.74
2022-10-22T06:36:20.299Z,15.35
2022-10-22T06:38:48.411Z,15.28
2022-10-22T06:41:17.471Z,15.59
2022-10-22T06:43:46.796Z,15.86
2022-10-22T06:46:19.975Z,15.58
2022-10-22T06:48:51.019Z,15.90
2022-10-22T06:51:18.991Z,16.09
2022-10-22T06:53:46.582Z,16.08
2022-10-22T06:56:15.569Z,16.17
2022-10-22T06:58:43.139Z,16.14
2022-10-22T07:01:13.990Z,16.18
2022-10-22T07:03:43.327Z,16.15
2022-10-22T07:06:12.717Z,16.36
2022-10-22T07:08:41.164Z,16.18
2022-10-22T07:11:10.921Z,16.25
2022-10-22T07:13:38.696Z,16.26
2022-10-22T07:16:08.140Z,16.18
2022-10-22T07:18:36.686Z,15.95
2022-10-22T07:21:06.889Z,15.79
2022-10-22T07:23:34.662Z,15.77
2022-10-22T07:26:03.344Z,15.53
2022-10-22T07:28:32.506Z,15.11
2022-10-22T07:31:00.111Z,14.88
2022-10-22T07:33:28.274Z,15.06
2022-10-22T07:35:58.963Z,15.33
2022-10-22T07:38:28.032Z,15.50
2022-10-22T07:40:55.588Z,15.78
2022-10-22T07:43:23.263Z,15.62
2022-10-22T07:45:51.064Z,15.71
2022-10-22T07:48:18.627Z,15.35
2022-10-22T07:50:46.140Z,15.03
2022-10-22T07:53:13.704Z,15.35
2022-10-22T07:55:42.560Z,15.34
2022-10-22T07:58:10.088Z,15.60
2022-10-22T08:00:37.631Z,15.18
2022-10-22T08:03:05.363Z,14.83
2022-10-22T08:05:32.887Z,14.85
2022-10-22T08:08:00.394Z,14.95
2022-10-22T08:10:27.903Z,15.10
2022-10-22T08:12:57.152Z,15.05
2022-10-22T08:15:25.564Z,15.03
2022-10-22T08:17:53.107Z,15.36
2022-10-22T08:20:21.257Z,15.47
2022-10-22T08:22:48.776Z,15.86
2022-10-22T08:25:18.001Z,15.82
2022-10-22T08:27:46.374Z,15.85
2022-10-22T08:30:15.651Z,15.83
2022-10-22T08:32:43.541Z,15.40
2022-10-22T08:35:14.146Z,15.83
2022-10-22T08:37:44.492Z,15.83
2022-10-22T08:40:20.605Z,15.95
2022-10-22T08:43:31.220Z,15.82
2022-10-22T08:46:11.929Z,15.59
2022-10-22T08:48:46.711Z,15.68
2022-10-22T08:51:17.513Z,15.43
2022-10-22T08:53:59.543Z,15.48
2022-10-22T08:56:27.726Z,15.71
2022-10-22T08:59:02.013Z,16.09
2022-10-22T09:01:36.425Z,16.72
2022-10-22T09:04:11.853Z,16.98
2022-10-22T09:06:44.158Z,16.84
2022-10-22T09:09:15.902Z,16.97
2022-10-22T09:11:47.013Z,16.75
2022-10-22T09:14:17.490Z,16.99
2022-10-22T09:17:02.231Z,17.04
2022-10-22T09:19:37.562Z,17.09
2022-10-22T09:22:17.652Z,17.11
2022-10-22T09:24:47.577Z,16.86
2022-10-22T09:27:17.608Z,16.94
2022-10-22T09:29:46.764Z,16.87
2022-10-22T09:32:16.540Z,16.39
2022-10-22T09:34:45.419Z,16.31
2022-10-22T09:37:13.225Z,16.43
2022-10-22T09:39:45.066Z,16.54
2022-10-22T09:42:15.514Z,16.81
2022-10-22T09:44:46.315Z,16.89
2022-10-22T09:47:42.649Z,16.99
2022-10-22T09:50:27.545Z,16.83
2022-10-22T09:53:05.314Z,17.03
2022-10-22T09:55:33.383Z,17.03
2022-10-22T09:58:01.709Z,17.55
2022-10-22T10:00:31.309Z,18.04
2022-10-22T10:03:01.329Z,18.57
2022-10-22T10:05:31.987Z,19.09
2022-10-22T10:08:01.724Z,19.51
2022-10-22T10:10:36.001Z,19.87
2022-10-22T10:13:23.058Z,19.90
2022-10-22T10:15:57.025Z,19.83
2022-10-22T10:18:37.695Z,19.59
2022-10-22T10:23:58.425Z,19.39
2022-10-22T10:26:32.811Z,20.27
2022-10-22T10:29:15.174Z,21.31
2022-10-22T10:31:56.524Z,21.32
2022-10-22T10:34:38.985Z,21.17
2022-10-22T10:37:19.334Z,21.81
2022-10-22T10:39:59.988Z,21.43
2022-10-22T10:42:34.938Z,21.71
2022-10-22T10:45:13.145Z,22.09
2022-10-22T10:48:19.526Z,21.74
2022-10-22T10:50:59.384Z,21.36
2022-10-22T10:53:42.876Z,20.53
2022-10-22T10:56:24.930Z,19.62
2022-10-22T10:59:01.875Z,20.85
2022-10-22T11:01:38.318Z,19.35
2022-10-22T11:04:24.653Z,18.34
2022-10-22T11:07:10.829Z,18.65
2022-10-22T11:09:44.173Z,19.70
2022-10-22T11:12:17.998Z,19.35
2022-10-22T11:14:56.671Z,19.83
2022-10-22T11:17:27.715Z,19.88
2022-10-22T11:20:01.913Z,19.82
2022-10-22T11:22:35.081Z,20.12
2022-10-22T11:25:06.859Z,17.98
2022-10-22T11:27:40.319Z,18.17
2022-10-22T11:30:14.768Z,16.94
2022-10-22T11:32:45.371Z,17.97
2022-10-22T11:35:16.957Z,19.43
2022-10-22T11:37:48.377Z,20.00
2022-10-22T11:40:19.730Z,20.84
2022-10-22T11:42:51.062Z,21.54
2022-10-22T11:45:31.428Z,22.38
2022-10-22T11:48:06.603Z,21.96
2022-10-22T11:50:50.787Z,21.05
2022-10-22T11:53:27.254Z,21.62
2022-10-22T11:55:57.508Z,22.06
2022-10-22T11:58:32.094Z,22.18
2022-10-22T12:01:19.696Z,22.19
2022-10-22T12:03:51.304Z,21.94
2022-10-22T12:06:22.199Z,21.34
2022-10-22T12:08:59.357Z,19.37
2022-10-22T12:11:28.784Z,18.89
2022-10-22T12:14:12.784Z,20.57
2022-10-22T12:16:55.818Z,21.74
2022-10-22T12:19:32.956Z,21.81
2022-10-22T12:22:07.288Z,22.11
2022-10-22T12:24:40.439Z,22.52
2022-10-22T12:27:21.636Z,23.06
2022-10-22T12:29:54.963Z,23.40
2022-10-22T12:32:22.603Z,22.56
2022-10-22T12:34:52.077Z,22.31
2022-10-22T12:37:20.501Z,21.81
2022-10-22T12:39:49.388Z,22.06
2022-10-22T12:42:18.807Z,21.57
2022-10-22T12:44:46.324Z,19.71
2022-10-22T12:47:17.564Z,18.52
2022-10-22T12:49:48.162Z,18.26
2022-10-22T12:52:19.207Z,18.54
2022-10-22T12:54:52.320Z,19.14
2022-10-22T12:57:21.121Z,18.67
2022-10-22T12:59:50.884Z,19.60
2022-10-22T13:02:22.588Z,19.47
2022-10-22T13:05:16.987Z,20.43
2022-10-22T13:07:48.568Z,20.83
2022-10-22T13:10:21.051Z,20.77
2022-10-22T13:12:54.960Z,20.42
2022-10-22T13:15:34.493Z,21.73
2022-10-22T13:18:15.737Z,22.95
2022-10-22T13:20:52.863Z,23.00
2022-10-22T13:23:22.285Z,22.65
2022-10-22T13:26:01.042Z,21.36
2022-10-22T13:28:30.091Z,21.25
2022-10-22T13:31:00.009Z,22.15
2022-10-22T13:33:31.394Z,22.45
2022-10-22T13:35:59.272Z,22.99
2022-10-22T13:38:28.388Z,22.85
2022-10-22T13:40:56.618Z,23.30
2022-10-22T13:43:26.093Z,23.14
2022-10-22T13:45:56.670Z,23.47
2022-10-22T13:48:26.414Z,23.83
2022-10-22T13:50:54.513Z,22.88
2022-10-22T13:53:24.943Z,21.94
2022-10-22T13:55:52.571Z,22.69
2022-10-22T13:58:23.827Z,22.43
2022-10-22T14:00:55.536Z,22.00
2022-10-22T14:03:27.187Z,21.29
2022-10-22T14:05:54.844Z,20.56
2022-10-22T14:08:24.145Z,19.88
2022-10-22T14:10:51.639Z,19.87
2022-10-22T14:13:20.621Z,19.66
2022-10-22T14:15:51.239Z,19.52
2022-10-22T14:18:25.349Z,19.56
2022-10-22T14:20:54.923Z,19.91
2022-10-22T14:23:24.344Z,19.91
2022-10-22T14:25:51.977Z,19.54
2022-10-22T14:28:19.912Z,19.65
2022-10-22T14:30:48.102Z,19.49
2022-10-22T14:33:18.196Z,19.57
2022-10-22T14:35:48.703Z,19.70
2022-10-22T14:38:16.596Z,19.20
2022-10-22T14:40:44.994Z,19.35
2022-10-22T14:43:13.799Z,19.26
2022-10-22T14:45:41.319Z,19.39
2022-10-22T14:48:09.222Z,19.42
2022-10-22T14:50:36.810Z,19.55
2022-10-22T14:53:05.905Z,19.01
2022-10-22T14:55:33.439Z,18.86
2022-10-22T14:58:00.989Z,19.17
2022-10-22T15:00:28.683Z,19.57
2022-10-22T15:02:56.667Z,19.62
2022-10-22T15:05:25.624Z,19.81
2022-10-22T15:07:53.120Z,19.50
2022-10-22T15:10:22.034Z,19.23
2022-10-22T15:12:49.542Z,19.70
2022-10-22T15:15:18.245Z,19.79
2022-10-22T15:17:48.139Z,19.74
2022-10-22T15:20:15.631Z,19.42
2022-10-22T15:22:43.442Z,19.79
2022-10-22T15:25:11.282Z,19.75
2022-10-22T15:27:40.170Z,19.46
2022-10-22T15:30:09.067Z,19.43
2022-10-22T15:32:36.591Z,19.04
2022-10-22T15:35:05.840Z,19.17
2022-10-22T15:37:33.365Z,19.40
2022-10-22T15:40:03.651Z,19.55
2022-10-22T15:42:31.228Z,19.05
2022-10-22T15:45:02.149Z,19.21
2022-10-22T15:47:31.149Z,18.73
2022-10-22T15:49:59.047Z,18.60
2022-10-22T15:52:26.598Z,18.70
2022-10-22T15:54:54.375Z,18.49
2022-10-22T15:57:21.946Z,18.62
2022-10-22T15:59:50.051Z,18.11
2022-10-22T16:02:18.945Z,17.95
2022-10-22T16:04:46.477Z,17.94
2022-10-22T16:07:13.995Z,18.24
2022-10-22T16:09:41.522Z,18.42
2022-10-22T16:12:09.749Z,18.16
2022-10-22T16:14:37.703Z,18.44
2022-10-22T16:17:05.237Z,18.43
2022-10-22T16:19:34.220Z,18.36
2022-10-22T16:22:03.291Z,18.31
2022-10-22T16:24:30.808Z,18.18
2022-10-22T16:26:58.595Z,17.78
2022-10-22T16:29:26.127Z,17.70
2022-10-22T16:31:53.630Z,17.56
2022-10-22T16:34:21.157Z,17.54
2022-10-22T16:39:24.381Z,16.87
2022-10-22T16:41:51.924Z,16.30
2022-10-22T16:44:19.433Z,16.05
2022-10-22T16:46:46.952Z,16.27
2022-10-22T16:49:14.504Z,16.02
2022-10-22T16:51:42.052Z,15.94
2022-10-22T16:54:13.072Z,15.76
2022-10-22T16:56:41.061Z,15.41
2022-10-22T16:59:08.619Z,15.68
2022-10-22T17:01:40.607Z,15.50
2022-10-22T17:04:08.816Z,15.60
2022-10-22T17:06:36.632Z,16.06
2022-10-22T17:09:05.159Z,16.29
2022-10-22T17:11:37.014Z,16.20
2022-10-22T17:14:07.459Z,16.21
2022-10-22T17:16:35.103Z,16.25
2022-10-22T17:19:04.595Z,15.84
2022-10-22T17:21:32.195Z,15.62
2022-10-22T17:23:59.743Z,15.71
2022-10-22T17:26:27.711Z,15.39
2022-10-22T17:28:56.927Z,15.09
2022-10-22T17:31:26.407Z,15.26
2022-10-22T17:33:55.886Z,15.74
2022-10-22T17:36:25.052Z,15.95
2022-10-22T17:38:55.175Z,15.87
2022-10-22T17:41:24.908Z,15.37
2022-10-22T17:43:52.689Z,15.44
2022-10-22T17:46:23.530Z,15.48
2022-10-22T17:48:52.594Z,15.38
2022-10-22T17:51:21.282Z,15.41
2022-10-22T17:53:50.158Z,15.33
2022-10-22T17:56:19.915Z,14.91
2022-10-22T17:58:47.652Z,14.81
2022-10-22T18:01:23.464Z,14.80
2022-10-22T18:03:51.137Z,15.22
2022-10-22T18:06:18.801Z,15.32
2022-10-22T18:08:46.632Z,15.38
2022-10-22T18:11:17.203Z,15.52
2022-10-22T18:13:44.920Z,15.63
2022-10-22T18:16:13.350Z,15.59
2022-10-22T18:18:42.283Z,15.67
2022-10-22T18:21:09.775Z,15.87
2022-10-22T18:23:37.695Z,15.90
2022-10-22T18:26:06.140Z,15.82
2022-10-22T18:28:33.942Z,15.71
2022-10-22T18:31:06.771Z,15.72
2022-10-22T18:33:35.213Z,15.50
2022-10-22T18:36:06.773Z,15.58
2022-10-22T18:38:34.612Z,15.33
2022-10-22T18:41:02.252Z,15.32
2022-10-22T18:43:29.769Z,15.24
2022-10-22T18:45:57.333Z,15.28
2022-10-22T18:48:24.868Z,15.21
2022-10-22T18:51:00.277Z,15.22
2022-10-22T18:53:29.536Z,15.10
2022-10-22T18:55:57.070Z,15.04
2022-10-22T18:58:24.627Z,15.05
2022-10-22T19:00:52.734Z,15.05
2022-10-22T19:03:20.294Z,14.94
2022-10-22T19:05:50.440Z,14.89
2022-10-22T19:08:18.636Z,14.79
2022-10-22T19:10:48.164Z,14.88
2022-10-22T19:13:16.892Z,14.96
2022-10-22T19:15:44.555Z,14.88
2022-10-22T19:18:15.009Z,14.78
2022-10-22T19:20:42.632Z,14.67
2022-10-22T19:23:10.140Z,14.47
2022-10-22T19:25:37.799Z,14.29
2022-10-22T19:28:06.952Z,14.16
2022-10-22T19:30:34.512Z,14.13
2022-10-22T19:33:02.027Z,14.34
2022-10-22T19:35:30.706Z,14.25
2022-10-22T19:37:58.225Z,14.04
2022-10-22T19:40:27.198Z,14.01
2022-10-22T19:42:54.873Z,14.00
2022-10-22T19:45:23.698Z,14.01
2022-10-22T19:47:51.214Z,13.99
2022-10-22T19:50:18.925Z,14.00
2022-10-22T19:52:46.457Z,13.95
2022-10-22T19:55:14.016Z,13.90
2022-10-22T19:57:41.749Z,13.79
2022-10-22T20:00:10.548Z,13.86
2022-10-22T20:02:39.517Z,13.87
2022-10-22T20:05:07.735Z,13.86
2022-10-22T20:07:35.273Z,13.78
2022-10-22T20:10:02.999Z,13.69
2022-10-22T20:12:30.503Z,13.61
2022-10-22T20:14:58.253Z,13.57
2022-10-22T20:17:25.727Z,13.59
2022-10-22T20:19:56.390Z,13.52
2022-10-22T20:22:23.927Z,13.32
2022-10-22T20:24:51.663Z,13.35
2022-10-22T20:27:19.232Z,13.42
2022-10-22T20:29:46.744Z,13.51
2022-10-22T20:32:14.308Z,13.46
2022-10-22T20:34:42.424Z,13.49
2022-10-22T20:37:11.362Z,13.40
2022-10-22T20:39:38.879Z,13.39
2022-10-22T20:42:06.466Z,13.24
2022-10-22T20:44:34.019Z,13.30
2022-10-22T20:47:01.708Z,13.27
2022-10-22T20:49:29.389Z,13.34
2022-10-22T20:51:56.900Z,13.19
2022-10-22T20:54:25.807Z,13.13
2022-10-22T20:56:53.548Z,13.05
2022-10-22T20:59:21.841Z,13.10
2022-10-22T21:01:50.922Z,13.17
2022-10-22T21:04:20.227Z,13.16
2022-10-22T21:06:50.081Z,13.16
2022-10-22T21:09:17.723Z,13.24
2022-10-22T21:11:47.156Z,13.20
2022-10-22T21:14:16.690Z,13.27
2022-10-22T21:16:46.430Z,13.36
2022-10-22T21:19:13.965Z,13.42
2022-10-22T21:21:41.785Z,13.35
2022-10-22T21:24:09.652Z,13.27
2022-10-22T21:26:37.750Z,13.06
2022-10-22T21:29:06.626Z,12.95
2022-10-22T21:31:34.455Z,12.70
2022-10-22T21:34:02.042Z,12.75
2022-10-22T21:36:29.548Z,12.79
2022-10-22T21:38:57.109Z,12.97
2022-10-22T21:41:25.332Z,13.21
2022-10-22T21:43:52.892Z,13.23
2022-10-22T21:46:23.428Z,13.37
2022-10-22T21:48:54.234Z,13.42
2022-10-22T21:51:23.444Z,13.53
2022-10-22T21:56:22.528Z,13.63
2022-10-22T21:58:50.175Z,13.47
2022-10-22T22:01:18.352Z,13.67
2022-10-22T22:03:49.108Z,13.74
2022-10-22T22:06:21.251Z,13.82
2022-10-22T22:08:49.811Z,13.82
2022-10-22T22:11:19.737Z,13.84
2022-10-22T22:13:48.617Z,13.85
2022-10-22T22:16:21.208Z,14.00
2022-10-22T22:18:53.011Z,14.16
2022-10-22T22:21:21.887Z,14.20
2022-10-22T22:23:50.574Z,14.34
2022-10-22T22:26:25.205Z,14.31
2022-10-22T22:28:56.386Z,14.31
2022-10-22T22:31:25.882Z,14.48
2022-10-22T22:33:58.943Z,14.57
2022-10-22T22:36:26.468Z,14.64
2022-10-22T22:38:55.188Z,14.64
2022-10-22T22:41:23.008Z,14.59
2022-10-22T22:43:50.583Z,14.47
2022-10-22T22:46:18.223Z,14.41
2022-10-22T22:48:47.937Z,14.42
2022-10-22T22:51:17.180Z,14.50
2022-10-22T22:53:45.860Z,14.52
2022-10-22T22:56:16.176Z,14.35
2022-10-22T22:58:44.445Z,14.54
2022-10-22T23:01:15.660Z,14.56
2022-10-22T23:03:44.174Z,14.65
2022-10-22T23:06:12.068Z,14.53
2022-10-22T23:08:41.421Z,14.67
2022-10-22T23:11:11.542Z,14.65
2022-10-22T23:13:39.736Z,14.38
2022-10-22T23:16:08.503Z,14.52
2022-10-22T23:18:36.726Z,14.42
2022-10-22T23:21:06.452Z,14.18
2022-10-22T23:23:34.545Z,14.14
2022-10-22T23:26:04.129Z,14.20
2022-10-22T23:28:31.778Z,14.48
2022-10-22T23:30:59.310Z,14.37
2022-10-22T23:33:27.335Z,14.56
2022-10-22T23:35:54.827Z,14.40
2022-10-22T23:38:22.399Z,14.24
2022-10-22T23:40:55.088Z,14.40
2022-10-22T23:43:24.020Z,14.38
2022-10-22T23:45:51.584Z,14.50
2022-10-22T23:48:19.517Z,14.51
2022-10-22T23:50:47.235Z,14.69
2022-10-22T23:53:14.821Z,14.69
2022-10-22T23:55:44.605Z,14.57
2022-10-22T23:58:12.891Z,14.68
